Time;durP1;ratioP1;P1;durP2;ratioP2;P2;SDS_P1;SDS_P2;PMS_P1;PMS_P2;Temp;Humidity;BMP_temperature;BMP_pressure;BME280_temperature;BME280_humidity;BME280_pressure;Samples;Min_cycle;Max_cycle;Signal;HPM_P1;HPM_P2
2023/01/19 01:04:47;;;;;;;46.57;27.00;;;2.50;99.90;;;;;;5954970;23;20257;-84
2023/01/19 01:40:14;;;;;;;45.53;27.60;;;2.50;99.90;;;;;;6058218;23;20657;-84
2023/01/19 02:15:37;;;;;;;46.97;25.80;;;2.60;99.90;;;;;;5842760;23;20188;-85
2023/01/19 02:45:43;;;;;;;50.57;28.70;;;2.30;99.90;;;;;;5840135;24;20629;-83
2023/01/19 03:11:00;;;;;;;48.33;28.43;;;2.50;99.90;;;;;;5928567;23;20701;-83
2023/01/19 03:36:21;;;;;;;53.50;29.57;;;2.50;99.90;;;;;;5816353;23;20228;-82
2023/01/19 05:08:07;;;;;;;55.23;29.73;;;2.50;99.90;;;;;;5936455;23;20181;-84
2023/01/19 05:53:57;;;;;;;39.50;24.27;;;2.80;99.90;;;;;;5939252;23;20215;-84
2023/01/19 05:58:16;;;;;;;38.70;23.97;;;2.60;99.90;;;;;;5900132;23;20231;-84
2023/01/19 06:24:15;;;;;;;41.63;23.87;;;2.60;99.90;;;;;;6113829;23;20230;-86
2023/01/19 07:38:47;;;;;;;31.73;19.37;;;2.80;99.90;;;;;;6132994;23;20156;-80
2023/01/19 08:08:56;;;;;;;34.60;19.30;;;2.90;99.90;;;;;;6012507;23;20281;-83
2023/01/19 08:34:24;;;;;;;34.83;21.80;;;2.90;99.90;;;;;;5929679;23;20169;-82
2023/01/19 09:09:50;;;;;;;24.60;13.20;;;3.00;99.90;;;;;;5827350;24;20760;-80
2023/01/19 09:45:36;;;;;;;24.37;13.33;;;3.20;99.90;;;;;;5910091;23;20429;-82
2023/01/19 10:30:41;;;;;;;23.07;13.00;;;3.00;99.90;;;;;;5962319;23;20350;-81
2023/01/19 10:56:23;;;;;;;27.70;15.77;;;3.40;99.90;;;;;;5937961;23;20517;-81
2023/01/19 11:16:53;;;;;;;27.27;17.27;;;3.50;99.90;;;;;;6033167;23;20552;-83
2023/01/19 12:43:07;;;;;;;28.83;17.50;;;3.60;99.90;;;;;;5796275;24;20222;-82
2023/01/19 12:47:26;;;;;;;30.90;18.67;;;3.80;99.90;;;;;;5724563;24;20245;-82
2023/01/19 13:38:19;;;;;;;33.13;19.27;;;3.60;99.90;;;;;;5682667;24;20699;-82
2023/01/19 14:29:33;;;;;;;30.20;18.13;;;3.40;99.90;;;;;;5765003;24;20200;-82
2023/01/19 14:59:40;;;;;;;28.80;16.23;;;3.30;99.90;;;;;;5953369;23;20213;-84
2023/01/19 15:30:23;;;;;;;28.10;16.20;;;3.30;99.90;;;;;;5797282;24;20199;-83
2023/01/19 16:00:36;;;;;;;33.63;18.30;;;3.20;99.90;;;;;;5843396;24;20190;-86
2023/01/19 16:15:48;;;;;;;24.73;16.00;;;3.10;99.90;;;;;;6186040;22;20212;-87
2023/01/19 16:30:43;;;;;;;23.77;16.27;;;3.10;99.90;;;;;;6174270;22;20181;-85
2023/01/19 16:58:07;;;;;;;17.10;11.30;;;3.10;99.90;;;;;;6149463;22;20231;31
2023/01/19 17:32:41;;;;;;;25.23;15.83;;;3.00;99.90;;;;;;6195503;22;20181;-83
2023/01/19 17:57:53;;;;;;;26.47;16.67;;;2.90;99.90;;;;;;6139787;23;20310;-83
2023/01/19 18:22:59;;;;;;;28.80;17.87;;;2.90;99.90;;;;;;6047362;23;20576;-83
2023/01/19 18:48:29;;;;;;;29.23;18.03;;;2.70;99.90;;;;;;5900609;24;20260;-84
2023/01/19 19:29:13;;;;;;;43.17;24.90;;;2.70;99.90;;;;;;5998532;23;20253;-83
2023/01/19 20:04:47;;;;;;;44.73;25.77;;;2.60;99.90;;;;;;6069953;23;20226;-85
2023/01/19 20:09:07;;;;;;;41.93;23.87;;;2.50;99.90;;;;;;6047757;23;20215;-83
2023/01/19 20:35:09;;;;;;;45.80;23.60;;;2.50;99.90;;;;;;5993364;23;20173;-83
2023/01/19 20:55:09;;;;;;;49.90;25.90;;;2.40;99.90;;;;;;5952899;23;20642;-82
2023/01/19 21:20:29;;;;;;;49.30;23.43;;;2.30;99.90;;;;;;5864187;24;20197;-84
2023/01/19 21:40:59;;;;;;;51.50;26.03;;;2.20;99.90;;;;;;6023321;23;20181;-83
2023/01/19 22:01:25;;;;;;;49.53;25.60;;;2.10;99.90;;;;;;5982577;23;20715;-84
2023/01/19 22:46:36;;;;;;;52.17;25.50;;;2.00;99.90;;;;;;6129721;22;20302;-84
2023/01/19 23:01:47;;;;;;;52.03;25.63;;;2.00;99.90;;;;;;6096924;23;20202;-85
2023/01/19 23:31:17;;;;;;;56.90;26.80;;;1.90;99.90;;;;;;6115874;23;20516;-87
2023/01/19 23:56:24;;;;;;;55.30;26.40;;;1.90;99.90;;;;;;6141595;23;20178;-84
